Gaschem Bremen — DGLB2 — position and weather

sailwx.info

Track history (hours):
 
Tides and Currents Weather Stations Pressure Air Temp Water Temp Dewpoint Dewpoint Depression Visibility Wind Speed Wind Dir Waves Ship Positions

Gaschem Bremen

Last reported at 2017-Oct-17 01:00 UTC. Time now 2017-Oct-17 01:11 UTC.
Position N 56°06' W 003°07'.

Length 173 m; draft 7 m.

Type: Ship. MMSI: 218859000.

Date/timePositionNaut miles runAvg speedWind from/ knotsBaromVisibWave heightAir tempDewpointWater temp
2017-Oct-17 01:00N 56°06' W 003°07'0 0.1
2017-Oct-17 00:30N 56°06' W 003°07'0 0.0
2017-Oct-17 00:00N 56°06' W 003°07'1327.6
2017-Oct-17 00:00N 56°06' W 003°06'1 1.3 210 / 30992.310.8 14.5 9.912.8
2017-Oct-16 23:30N 56°06' W 003°07'0 0.1
2017-Oct-16 23:00N 56°06' W 003°07'0 0.0
2017-Oct-16 22:30N 56°06' W 003°07'0 0.0
2017-Oct-16 22:00N 56°06' W 003°07'0 0.0
2017-Oct-16 21:30N 56°06' W 003°07'0 0.0
2017-Oct-16 21:00N 56°06' W 003°07'0 0.0
2017-Oct-16 20:30N 56°06' W 003°07'0 0.3
2017-Oct-16 20:00N 56°06' W 003°07'2 4.7
2017-Oct-16 19:30N 56°06' W 003°03'611.6
2017-Oct-16 19:00N 56°07' W 002°53'815.7
2017-Oct-16 18:30N 56°07' W 002°39'816.0
2017-Oct-16 18:00N 56°05' W 002°25'816.8
2017-Oct-16 17:31N 56°02' W 002°11'816.7
2017-Oct-16 17:00N 55°58' W 001°58'816.9
2017-Oct-16 16:30N 55°52' W 001°47'816.6
2017-Oct-16 16:00N 55°46' W 001°37'816.4
2017-Oct-16 15:30N 55°41' W 001°26'815.9
2017-Oct-16 15:00N 55°35' W 001°15'815.8
2017-Oct-16 14:31N 55°28' W 001°11'1616.1
2017-Oct-16 13:30N 55°12' W 001°04'816.0
2017-Oct-16 13:00N 55°05' W 000°59'714.3
2017-Oct-16 12:29N 54°60' W 000°49'816.0
2017-Oct-16 12:00N 54°57' W 000°36'3275.3
2017-Oct-16 12:00N 54°54' W 000°36'815.6 110 / 151010.0 0.0 14.611.713.9
2017-Oct-16 11:30N 54°55' W 000°23'916.1
2017-Oct-16 10:58N 54°53' W 000°08'716.3
2017-Oct-16 10:30N 54°51' E 000°04'816.4
2017-Oct-16 10:00N 54°46' E 000°16'4762.3
2017-Oct-16 10:00N 54°42' E 000°12'817.3 1012.3 13.211.912.0
2017-Oct-16 09:30N 54°40' E 000°26'917.0
2017-Oct-16 09:00N 54°35' E 000°38'917.1
2017-Oct-16 08:30N 54°31' E 000°51'10413.1
2017-Oct-16 00:35N 53°12' E 002°46'517.0
2017-Oct-16 00:18N 53°08' E 002°43'516.9
2017-Oct-16 00:00N 53°03' E 002°41'638696.2
2017-Oct-16 00:00N 52°00' E 002°36'54111.7 230 / 121016.9 2.1 15.013.515.1
2017-Oct-15 23:30N 52°54' E 002°41'917.2
2017-Oct-15 23:01N 52°46' E 002°41'917.3
2017-Oct-15 22:31N 52°37' E 002°41'917.2
2017-Oct-15 22:00N 52°28' E 002°41'917.0
2017-Oct-15 21:30N 52°20' E 002°41'816.7
2017-Oct-15 21:00N 52°12' E 002°41'816.1
2017-Oct-15 20:30N 52°04' E 002°44'815.9
2017-Oct-15 20:00N 51°56' E 002°49'813.6
2017-Oct-15 19:27N 51°53' E 002°60'714.0
2017-Oct-15 18:55N 51°49' E 003°10'614.6
2017-Oct-15 18:30N 51°43' E 003°15'510.8
2017-Oct-15 18:00N 51°38' E 003°12'612.3
2017-Oct-15 17:30N 51°33' E 003°09'713.1
2017-Oct-15 17:00N 51°29' E 003°01'4 8.2
2017-Oct-15 16:31N 51°25' E 003°03'714.7
2017-Oct-15 16:00N 51°25' E 003°15'815.8
2017-Oct-15 15:30N 51°25' E 003°28'815.8
2017-Oct-15 15:00N 51°27' E 003°40'1 0.1
2017-Oct-15 08:54N 51°27' E 003°40'0 0.0
2017-Oct-15 08:24N 51°27' E 003°40'0 0.0
2017-Oct-15 08:00N 51°27' E 003°40'0 0.0
2017-Oct-15 06:42N 51°27' E 003°40'0 0.0
2017-Oct-15 06:18N 51°27' E 003°40'0 0.0
2017-Oct-15 06:00N 51°27' E 003°40'0 0.1
2017-Oct-15 05:30N 51°27' E 003°40'1 1.1
2017-Oct-15 05:00N 51°27' E 003°40'510.6
2017-Oct-15 04:30N 51°22' E 003°45'2 0.1
2017-Oct-13 17:02N 51°20' E 003°46'0 0.0
2017-Oct-13 16:50N 51°20' E 003°46'0 0.0
2017-Oct-13 16:26N 51°20' E 003°46'0 0.2
2017-Oct-13 16:00N 51°20' E 003°46'2 4.0
2017-Oct-13 15:30N 51°22' E 003°44'510.4
2017-Oct-13 15:00N 51°26' E 003°39'714.6
2017-Oct-13 14:30N 51°25' E 003°28'612.7
2017-Oct-13 14:00N 51°24' E 003°18'713.1
2017-Oct-13 13:30N 51°24' E 003°07'611.6
2017-Oct-13 13:00N 51°27' E 002°59'714.2
2017-Oct-13 12:30N 51°32' E 003°06'713.6
2017-Oct-13 12:00N 51°38' E 003°11'612.0
2017-Oct-13 11:30N 51°44' E 003°16'3 6.6
2017-Oct-13 11:00N 51°46' E 003°18'1 1.6
2017-Oct-13 10:27N 51°47' E 003°19'0 0.0
2017-Oct-13 09:54N 51°47' E 003°20'0 0.0
2017-Oct-13 09:24N 51°47' E 003°20'0 0.0
2017-Oct-13 08:24N 51°47' E 003°20'0 0.0
2017-Oct-13 07:54N 51°47' E 003°20'0 0.0
2017-Oct-13 05:45N 51°47' E 003°20'0 0.1
2017-Oct-13 05:27N 51°47' E 003°20'0 0.1
2017-Oct-13 04:00N 51°47' E 003°19'0 0.1
2017-Oct-13 03:27N 51°47' E 003°19'0 0.0
2017-Oct-13 01:00N 51°47' E 003°19'0 0.1
2017-Oct-13 00:09N 51°47' E 003°20'0 0.2
2017-Oct-13 00:00N 51°47' E 003°20'0 0.1
2017-Oct-12 23:30N 51°47' E 003°20'0 0.0
2017-Oct-12 23:00N 51°47' E 003°20'0 0.0
2017-Oct-12 21:00N 51°47' E 003°20'0 0.0
2017-Oct-12 20:12N 51°47' E 003°20'0 0.0
2017-Oct-12 19:48N 51°47' E 003°20'0 0.0
2017-Oct-12 19:30N 51°47' E 003°20'0 0.0
2017-Oct-12 17:39N 51°47' E 003°20'0 0.1
2017-Oct-12 17:09N 51°47' E 003°20'0 0.0
2017-Oct-12 16:15N 51°47' E 003°20'0 0.0
2017-Oct-12 15:57N 51°47' E 003°20'0 0.1
2017-Oct-12 15:27N 51°47' E 003°20'0 0.1
2017-Oct-12 14:54N 51°47' E 003°19'0 0.1
2017-Oct-12 14:30N 51°47' E 003°19'0 0.1
2017-Oct-12 14:00N 51°47' E 003°19'5 2.4
2017-Oct-12 12:00N 51°42' E 003°18'5 9.8 270 / 201021.010.8 18.5 7.016.4
2017-Oct-12 11:30N 51°47' E 003°20'0 0.0
2017-Oct-12 09:54N 51°47' E 003°20'0 0.1
2017-Oct-12 09:30N 51°47' E 003°20'5 9.6
2017-Oct-12 09:00N 51°42' E 003°18'5 1.1 280 / 221019.710.8 16.4 8.112.0
2017-Oct-12 04:24N 51°47' E 003°20'0 0.0
2017-Oct-12 03:09N 51°47' E 003°20'0 0.0
2017-Oct-12 02:45N 51°47' E 003°20'0 0.1
2017-Oct-12 02:27N 51°47' E 003°20'0 0.1
2017-Oct-12 02:00N 51°47' E 003°20'0 0.5
2017-Oct-12 01:21N 51°47' E 003°19'1 4.2
2017-Oct-12 00:59N 51°46' E 003°17'4 7.6
2017-Oct-12 00:29N 51°47' E 003°11'5315.3
2017-Oct-11 21:00N 52°36' E 002°36'88 9.7 190 / 531005.7 5.4 16.213.112.0
2017-Oct-11 12:00N 54°00' E 001°54'18215.2 220 / 231004.210.8 16.311.212.9
2017-Oct-11 00:00N 56°00' W 002°04'2151.7
2017-Oct-11 00:00N 56°00' W 002°00'1020.2 210 / 26998.310.8 13.5 9.212.9
2017-Oct-10 23:30N 56°04' W 002°16'815.0
2017-Oct-10 23:00N 56°07' W 002°28'815.9
2017-Oct-10 22:30N 56°07' W 002°42'815.4
2017-Oct-10 22:00N 56°06' W 002°56'713.2
2017-Oct-10 21:30N 56°03' W 003°07'5 9.7
2017-Oct-10 21:00N 56°03' W 003°15'2 4.1
2017-Oct-10 20:30N 56°02' W 003°19'0 0.0
2017-Oct-10 19:59N 56°02' W 003°19'0 0.0
2017-Oct-09 11:41N 56°02' W 003°19'0 0.0
2017-Oct-09 11:30N 56°02' W 003°19'1 1.0
2017-Oct-09 11:00N 56°02' W 003°19'2 3.6
2017-Oct-09 10:30N 56°02' W 003°16'611.8
2017-Oct-09 10:01N 56°05' W 003°07'189.6
2017-Oct-09 10:00N 56°06' W 003°06'0 0.9 210 / 121014.510.8 15.8 9.916.0
2017-Oct-09 09:28N 56°06' W 003°06'0 0.0
2017-Oct-09 08:58N 56°06' W 003°06'0 0.0
2017-Oct-09 08:28N 56°06' W 003°06'0 0.0
2017-Oct-09 07:58N 56°06' W 003°06'0 0.0
2017-Oct-09 07:28N 56°06' W 003°06'0 0.0
2017-Oct-09 06:58N 56°06' W 003°06'0 0.0
2017-Oct-09 06:28N 56°06' W 003°06'0 0.0
2017-Oct-09 05:59N 56°06' W 003°06'1 2.0
2017-Oct-09 05:30N 56°06' W 003°05'510.0
2017-Oct-09 05:01N 56°06' W 002°56'714.4
2017-Oct-09 04:31N 56°07' W 002°43'714.0
2017-Oct-09 04:01N 56°07' W 002°31'713.9
2017-Oct-09 03:31N 56°04' W 002°19'713.8
2017-Oct-09 03:00N 56°01' W 002°08'714.4
2017-Oct-09 02:30N 55°58' W 001°57'714.1
2017-Oct-09 02:00N 55°53' W 001°48'714.6
2017-Oct-09 01:30N 55°48' W 001°39'815.0
2017-Oct-09 01:00N 55°42' W 001°29'815.5
2017-Oct-09 00:30N 55°37' W 001°19'815.6
2017-Oct-09 00:00N 55°32' W 001°09'2171.8
2017-Oct-09 00:00N 55°30' W 001°06'611.4 220 / 101018.027.0 12.810.512.6
2017-Oct-08 23:29N 55°26' W 000°58'1015.7
2017-Oct-08 22:52N 55°20' W 000°46'2915.5
2017-Oct-08 21:01N 54°60' W 000°10'015.1
2017-Oct-08 21:00N 54°59' W 000°10'8494.0
2017-Oct-08 21:00N 54°54' E 000°00'0 0.6 1018.310.8 9.817.0
2017-Oct-08 20:30N 54°54' W 000°00'714.6
2017-Oct-08 20:00N 54°49' E 000°09'714.3
2017-Oct-08 19:30N 54°45' E 000°19'714.0
2017-Oct-08 19:00N 54°41' E 000°29'2 4.1
2017-Oct-08 18:31N 54°41' E 000°26'815.9
2017-Oct-08 18:01N 54°47' E 000°16'815.9
2017-Oct-08 17:31N 54°53' E 000°06'2 3.4
2017-Oct-08 17:00N 54°51' E 000°05'713.7
2017-Oct-08 16:31N 54°46' E 000°14'713.8
2017-Oct-08 16:01N 54°41' E 000°22'714.0
2017-Oct-08 15:31N 54°37' E 000°31'714.4
2017-Oct-08 15:01N 54°32' E 000°40'714.7
2017-Oct-08 14:31N 54°27' E 000°49'3714.7
2017-Oct-08 12:00N 54°06' E 001°42'6212.4 1018.110.8 14.810.614.2
2017-Oct-08 07:00N 53°18' E 002°48'10015.3 340 / 131015.5 5.4 13.410.216.0
2017-Oct-08 00:28N 51°39' E 002°26'715.8
2017-Oct-08 00:00N 51°33' E 002°19'3215.6
2017-Oct-08 00:00N 51°30' E 002°18'5 9.6 310 / 201013.410.8 13.911.216.1
2017-Oct-07 23:31N 51°27' E 002°13'714.3
2017-Oct-07 23:00N 51°20' E 002°09'713.9
2017-Oct-07 22:30N 51°14' E 002°04'714.1
2017-Oct-07 22:01N 51°10' E 001°54'713.5
2017-Oct-07 21:30N 51°06' E 001°45'612.6
2017-Oct-07 21:00N 51°02' E 001°38'2170.6
2017-Oct-07 21:00N 51°00' E 001°36'4 8.4 310 / 201014.410.8 15.011.417.0
2017-Oct-07 20:30N 50°58' E 001°31'612.1
2017-Oct-07 20:00N 50°52' E 001°27'813.0
2017-Oct-07 19:25N 50°45' E 001°24'1113.7
2017-Oct-07 18:38N 50°36' E 001°13'714.5
2017-Oct-07 18:07N 50°31' E 001°04'214.6
2017-Oct-07 17:59N 50°30' E 001°02'914.5
2017-Oct-07 17:20N 50°27' E 000°48'614.9
2017-Oct-07 16:57N 50°26' E 000°39'814.8
2017-Oct-07 16:23N 50°24' E 000°27'614.7
2017-Oct-07 16:00N 50°22' E 000°18'714.5
2017-Oct-07 15:30N 50°20' E 000°08'714.6
2017-Oct-07 15:00N 50°18' W 000°04'714.7
2017-Oct-07 14:30N 50°16' W 000°15'3413.7
2017-Oct-07 12:00N 50°06' W 001°06'4519.9 250 / 211019.8 2.2 16.513.816.8
2017-Oct-07 09:43N 49°55' W 002°15'1319.0
2017-Oct-07 09:01N 49°52' W 002°34'418.7
2017-Oct-07 08:49N 49°51' W 002°40'618.3
2017-Oct-07 08:31N 49°49' W 002°48'918.2
2017-Oct-07 08:00N 49°45' W 003°01'1218.2
2017-Oct-07 07:19N 49°38' W 003°17'514.9
2017-Oct-07 07:00N 49°36' W 003°24'1107.0 250 / 221023.4 5.4 14.811.217.0
2017-Oct-07 06:59N 49°35' W 003°26'1018.1
2017-Oct-07 06:27N 49°30' W 003°38'818.1
2017-Oct-07 06:00N 49°26' W 003°49'1018.2
2017-Oct-07 05:27N 49°21' W 004°02'818.2
2017-Oct-07 05:00N 49°17' W 004°13'918.2
2017-Oct-07 04:30N 49°13' W 004°25'918.0
2017-Oct-07 04:00N 49°09' W 004°37'917.9
2017-Oct-07 03:31N 49°04' W 004°49'917.8
2017-Oct-07 03:01N 49°00' W 005°02'917.4
2017-Oct-07 02:31N 48°56' W 005°13'816.7
2017-Oct-07 02:01N 48°52' W 005°24'816.5
2017-Oct-07 01:31N 48°48' W 005°35'815.7
2017-Oct-07 01:01N 48°42' W 005°43'  
Track history (hours):
 
Tides and Currents Weather Stations Pressure Air Temp Water Temp Dewpoint Dewpoint Depression Visibility Wind Speed Wind Dir Waves Ship Positions

Gaschem Bremen

Last reported at 2017-Oct-17 01:00 UTC. Time now 2017-Oct-17 01:11 UTC.
Position N 56°06' W 003°07'.

Length 173 m; draft 7 m.

Type: Ship. MMSI: 218859000.

Date/timePositionNaut miles runAvg speedWind from/ knotsBaromVisibWave heightAir tempDewpointWater temp
2017-Oct-17 01:00N 56°06' W 003°07'0 0.1
2017-Oct-17 00:30N 56°06' W 003°07'0 0.0
2017-Oct-17 00:00N 56°06' W 003°07'1327.6
2017-Oct-17 00:00N 56°06' W 003°06'1 1.3 210 / 30992.310.8 14.5 9.912.8
2017-Oct-16 23:30N 56°06' W 003°07'0 0.1
2017-Oct-16 23:00N 56°06' W 003°07'0 0.0
2017-Oct-16 22:30N 56°06' W 003°07'0 0.0
2017-Oct-16 22:00N 56°06' W 003°07'0 0.0
2017-Oct-16 21:30N 56°06' W 003°07'0 0.0
2017-Oct-16 21:00N 56°06' W 003°07'0 0.0
2017-Oct-16 20:30N 56°06' W 003°07'0 0.3
2017-Oct-16 20:00N 56°06' W 003°07'2 4.7
2017-Oct-16 19:30N 56°06' W 003°03'611.6
2017-Oct-16 19:00N 56°07' W 002°53'815.7
2017-Oct-16 18:30N 56°07' W 002°39'816.0
2017-Oct-16 18:00N 56°05' W 002°25'816.8
2017-Oct-16 17:31N 56°02' W 002°11'816.7
2017-Oct-16 17:00N 55°58' W 001°58'816.9
2017-Oct-16 16:30N 55°52' W 001°47'816.6
2017-Oct-16 16:00N 55°46' W 001°37'816.4
2017-Oct-16 15:30N 55°41' W 001°26'815.9
2017-Oct-16 15:00N 55°35' W 001°15'815.8
2017-Oct-16 14:31N 55°28' W 001°11'1616.1
2017-Oct-16 13:30N 55°12' W 001°04'816.0
2017-Oct-16 13:00N 55°05' W 000°59'714.3
2017-Oct-16 12:29N 54°60' W 000°49'816.0
2017-Oct-16 12:00N 54°57' W 000°36'3275.3
2017-Oct-16 12:00N 54°54' W 000°36'815.6 110 / 151010.0 0.0 14.611.713.9
2017-Oct-16 11:30N 54°55' W 000°23'916.1
2017-Oct-16 10:58N 54°53' W 000°08'716.3
2017-Oct-16 10:30N 54°51' E 000°04'816.4
2017-Oct-16 10:00N 54°46' E 000°16'4762.3
2017-Oct-16 10:00N 54°42' E 000°12'817.3 1012.3 13.211.912.0
2017-Oct-16 09:30N 54°40' E 000°26'917.0
2017-Oct-16 09:00N 54°35' E 000°38'917.1
2017-Oct-16 08:30N 54°31' E 000°51'10413.1
2017-Oct-16 00:35N 53°12' E 002°46'517.0
2017-Oct-16 00:18N 53°08' E 002°43'516.9
2017-Oct-16 00:00N 53°03' E 002°41'638696.2
2017-Oct-16 00:00N 52°00' E 002°36'54111.7 230 / 121016.9 2.1 15.013.515.1
2017-Oct-15 23:30N 52°54' E 002°41'917.2
2017-Oct-15 23:01N 52°46' E 002°41'917.3
2017-Oct-15 22:31N 52°37' E 002°41'917.2
2017-Oct-15 22:00N 52°28' E 002°41'917.0
2017-Oct-15 21:30N 52°20' E 002°41'816.7
2017-Oct-15 21:00N 52°12' E 002°41'816.1
2017-Oct-15 20:30N 52°04' E 002°44'815.9
2017-Oct-15 20:00N 51°56' E 002°49'813.6
2017-Oct-15 19:27N 51°53' E 002°60'714.0
2017-Oct-15 18:55N 51°49' E 003°10'614.6
2017-Oct-15 18:30N 51°43' E 003°15'510.8
2017-Oct-15 18:00N 51°38' E 003°12'612.3
2017-Oct-15 17:30N 51°33' E 003°09'713.1
2017-Oct-15 17:00N 51°29' E 003°01'4 8.2
2017-Oct-15 16:31N 51°25' E 003°03'714.7
2017-Oct-15 16:00N 51°25' E 003°15'815.8
2017-Oct-15 15:30N 51°25' E 003°28'815.8
2017-Oct-15 15:00N 51°27' E 003°40'1 0.1
2017-Oct-15 08:54N 51°27' E 003°40'0 0.0
2017-Oct-15 08:24N 51°27' E 003°40'0 0.0
2017-Oct-15 08:00N 51°27' E 003°40'0 0.0
2017-Oct-15 06:42N 51°27' E 003°40'0 0.0
2017-Oct-15 06:18N 51°27' E 003°40'0 0.0
2017-Oct-15 06:00N 51°27' E 003°40'0 0.1
2017-Oct-15 05:30N 51°27' E 003°40'1 1.1
2017-Oct-15 05:00N 51°27' E 003°40'510.6
2017-Oct-15 04:30N 51°22' E 003°45'2 0.1
2017-Oct-13 17:02N 51°20' E 003°46'0 0.0
2017-Oct-13 16:50N 51°20' E 003°46'0 0.0
2017-Oct-13 16:26N 51°20' E 003°46'0 0.2
2017-Oct-13 16:00N 51°20' E 003°46'2 4.0
2017-Oct-13 15:30N 51°22' E 003°44'510.4
2017-Oct-13 15:00N 51°26' E 003°39'714.6
2017-Oct-13 14:30N 51°25' E 003°28'612.7
2017-Oct-13 14:00N 51°24' E 003°18'713.1
2017-Oct-13 13:30N 51°24' E 003°07'611.6
2017-Oct-13 13:00N 51°27' E 002°59'714.2
2017-Oct-13 12:30N 51°32' E 003°06'713.6
2017-Oct-13 12:00N 51°38' E 003°11'612.0
2017-Oct-13 11:30N 51°44' E 003°16'3 6.6
2017-Oct-13 11:00N 51°46' E 003°18'1 1.6
2017-Oct-13 10:27N 51°47' E 003°19'0 0.0
2017-Oct-13 09:54N 51°47' E 003°20'0 0.0
2017-Oct-13 09:24N 51°47' E 003°20'0 0.0
2017-Oct-13 08:24N 51°47' E 003°20'0 0.0
2017-Oct-13 07:54N 51°47' E 003°20'0 0.0
2017-Oct-13 05:45N 51°47' E 003°20'0 0.1
2017-Oct-13 05:27N 51°47' E 003°20'0 0.1
2017-Oct-13 04:00N 51°47' E 003°19'0 0.1
2017-Oct-13 03:27N 51°47' E 003°19'0 0.0
2017-Oct-13 01:00N 51°47' E 003°19'0 0.1
2017-Oct-13 00:09N 51°47' E 003°20'0 0.2
2017-Oct-13 00:00N 51°47' E 003°20'0 0.1
2017-Oct-12 23:30N 51°47' E 003°20'0 0.0
2017-Oct-12 23:00N 51°47' E 003°20'0 0.0
2017-Oct-12 21:00N 51°47' E 003°20'0 0.0
2017-Oct-12 20:12N 51°47' E 003°20'0 0.0
2017-Oct-12 19:48N 51°47' E 003°20'0 0.0
2017-Oct-12 19:30N 51°47' E 003°20'0 0.0
2017-Oct-12 17:39N 51°47' E 003°20'0 0.1
2017-Oct-12 17:09N 51°47' E 003°20'0 0.0
2017-Oct-12 16:15N 51°47' E 003°20'0 0.0
2017-Oct-12 15:57N 51°47' E 003°20'0 0.1
2017-Oct-12 15:27N 51°47' E 003°20'0 0.1
2017-Oct-12 14:54N 51°47' E 003°19'0 0.1
2017-Oct-12 14:30N 51°47' E 003°19'0 0.1
2017-Oct-12 14:00N 51°47' E 003°19'5 2.4
2017-Oct-12 12:00N 51°42' E 003°18'5 9.8 270 / 201021.010.8 18.5 7.016.4
2017-Oct-12 11:30N 51°47' E 003°20'0 0.0
2017-Oct-12 09:54N 51°47' E 003°20'0 0.1
2017-Oct-12 09:30N 51°47' E 003°20'5 9.6
2017-Oct-12 09:00N 51°42' E 003°18'5 1.1 280 / 221019.710.8 16.4 8.112.0
2017-Oct-12 04:24N 51°47' E 003°20'0 0.0
2017-Oct-12 03:09N 51°47' E 003°20'0 0.0
2017-Oct-12 02:45N 51°47' E 003°20'0 0.1
2017-Oct-12 02:27N 51°47' E 003°20'0 0.1
2017-Oct-12 02:00N 51°47' E 003°20'0 0.5
2017-Oct-12 01:21N 51°47' E 003°19'1 4.2
2017-Oct-12 00:59N 51°46' E 003°17'4 7.6
2017-Oct-12 00:29N 51°47' E 003°11'5315.3
2017-Oct-11 21:00N 52°36' E 002°36'88 9.7 190 / 531005.7 5.4 16.213.112.0
2017-Oct-11 12:00N 54°00' E 001°54'18215.2 220 / 231004.210.8 16.311.212.9
2017-Oct-11 00:00N 56°00' W 002°04'2151.7
2017-Oct-11 00:00N 56°00' W 002°00'1020.2 210 / 26998.310.8 13.5 9.212.9
2017-Oct-10 23:30N 56°04' W 002°16'815.0
2017-Oct-10 23:00N 56°07' W 002°28'815.9
2017-Oct-10 22:30N 56°07' W 002°42'815.4
2017-Oct-10 22:00N 56°06' W 002°56'713.2
2017-Oct-10 21:30N 56°03' W 003°07'5 9.7
2017-Oct-10 21:00N 56°03' W 003°15'2 4.1
2017-Oct-10 20:30N 56°02' W 003°19'0 0.0
2017-Oct-10 19:59N 56°02' W 003°19'0 0.0
2017-Oct-09 11:41N 56°02' W 003°19'0 0.0
2017-Oct-09 11:30N 56°02' W 003°19'1 1.0
2017-Oct-09 11:00N 56°02' W 003°19'2 3.6
2017-Oct-09 10:30N 56°02' W 003°16'611.8
2017-Oct-09 10:01N 56°05' W 003°07'189.6
2017-Oct-09 10:00N 56°06' W 003°06'0 0.9 210 / 121014.510.8 15.8 9.916.0
2017-Oct-09 09:28N 56°06' W 003°06'0 0.0
2017-Oct-09 08:58N 56°06' W 003°06'0 0.0
2017-Oct-09 08:28N 56°06' W 003°06'0 0.0
2017-Oct-09 07:58N 56°06' W 003°06'0 0.0
2017-Oct-09 07:28N 56°06' W 003°06'0 0.0
2017-Oct-09 06:58N 56°06' W 003°06'0 0.0
2017-Oct-09 06:28N 56°06' W 003°06'0 0.0
2017-Oct-09 05:59N 56°06' W 003°06'1 2.0
2017-Oct-09 05:30N 56°06' W 003°05'510.0
2017-Oct-09 05:01N 56°06' W 002°56'714.4
2017-Oct-09 04:31N 56°07' W 002°43'714.0
2017-Oct-09 04:01N 56°07' W 002°31'713.9
2017-Oct-09 03:31N 56°04' W 002°19'713.8
2017-Oct-09 03:00N 56°01' W 002°08'714.4
2017-Oct-09 02:30N 55°58' W 001°57'714.1
2017-Oct-09 02:00N 55°53' W 001°48'714.6
2017-Oct-09 01:30N 55°48' W 001°39'815.0
2017-Oct-09 01:00N 55°42' W 001°29'815.5
2017-Oct-09 00:30N 55°37' W 001°19'815.6
2017-Oct-09 00:00N 55°32' W 001°09'2171.8
2017-Oct-09 00:00N 55°30' W 001°06'611.4 220 / 101018.027.0 12.810.512.6
2017-Oct-08 23:29N 55°26' W 000°58'1015.7
2017-Oct-08 22:52N 55°20' W 000°46'2915.5
2017-Oct-08 21:01N 54°60' W 000°10'015.1
2017-Oct-08 21:00N 54°59' W 000°10'8494.0
2017-Oct-08 21:00N 54°54' E 000°00'0 0.6 1018.310.8 9.817.0
2017-Oct-08 20:30N 54°54' W 000°00'714.6
2017-Oct-08 20:00N 54°49' E 000°09'714.3
2017-Oct-08 19:30N 54°45' E 000°19'714.0
2017-Oct-08 19:00N 54°41' E 000°29'2 4.1
2017-Oct-08 18:31N 54°41' E 000°26'815.9
2017-Oct-08 18:01N 54°47' E 000°16'815.9
2017-Oct-08 17:31N 54°53' E 000°06'2 3.4
2017-Oct-08 17:00N 54°51' E 000°05'713.7
2017-Oct-08 16:31N 54°46' E 000°14'713.8
2017-Oct-08 16:01N 54°41' E 000°22'714.0
2017-Oct-08 15:31N 54°37' E 000°31'714.4
2017-Oct-08 15:01N 54°32' E 000°40'714.7
2017-Oct-08 14:31N 54°27' E 000°49'3714.7
2017-Oct-08 12:00N 54°06' E 001°42'6212.4 1018.110.8 14.810.614.2
2017-Oct-08 07:00N 53°18' E 002°48'10015.3 340 / 131015.5 5.4 13.410.216.0
2017-Oct-08 00:28N 51°39' E 002°26'715.8
2017-Oct-08 00:00N 51°33' E 002°19'3215.6
2017-Oct-08 00:00N 51°30' E 002°18'5 9.6 310 / 201013.410.8 13.911.216.1
2017-Oct-07 23:31N 51°27' E 002°13'714.3
2017-Oct-07 23:00N 51°20' E 002°09'713.9
2017-Oct-07 22:30N 51°14' E 002°04'714.1
2017-Oct-07 22:01N 51°10' E 001°54'713.5
2017-Oct-07 21:30N 51°06' E 001°45'612.6
2017-Oct-07 21:00N 51°02' E 001°38'2170.6
2017-Oct-07 21:00N 51°00' E 001°36'4 8.4 310 / 201014.410.8 15.011.417.0
2017-Oct-07 20:30N 50°58' E 001°31'612.1
2017-Oct-07 20:00N 50°52' E 001°27'813.0
2017-Oct-07 19:25N 50°45' E 001°24'1113.7
2017-Oct-07 18:38N 50°36' E 001°13'714.5
2017-Oct-07 18:07N 50°31' E 001°04'214.6
2017-Oct-07 17:59N 50°30' E 001°02'914.5
2017-Oct-07 17:20N 50°27' E 000°48'614.9
2017-Oct-07 16:57N 50°26' E 000°39'814.8
2017-Oct-07 16:23N 50°24' E 000°27'614.7
2017-Oct-07 16:00N 50°22' E 000°18'714.5
2017-Oct-07 15:30N 50°20' E 000°08'714.6
2017-Oct-07 15:00N 50°18' W 000°04'714.7
2017-Oct-07 14:30N 50°16' W 000°15'3413.7
2017-Oct-07 12:00N 50°06' W 001°06'4519.9 250 / 211019.8 2.2 16.513.816.8
2017-Oct-07 09:43N 49°55' W 002°15'1319.0
2017-Oct-07 09:01N 49°52' W 002°34'418.7
2017-Oct-07 08:49N 49°51' W 002°40'618.3
2017-Oct-07 08:31N 49°49' W 002°48'918.2
2017-Oct-07 08:00N 49°45' W 003°01'1218.2
2017-Oct-07 07:19N 49°38' W 003°17'514.9
2017-Oct-07 07:00N 49°36' W 003°24'1107.0 250 / 221023.4 5.4 14.811.217.0
2017-Oct-07 06:59N 49°35' W 003°26'1018.1
2017-Oct-07 06:27N 49°30' W 003°38'818.1
2017-Oct-07 06:00N 49°26' W 003°49'1018.2
2017-Oct-07 05:27N 49°21' W 004°02'818.2
2017-Oct-07 05:00N 49°17' W 004°13'918.2
2017-Oct-07 04:30N 49°13' W 004°25'918.0
2017-Oct-07 04:00N 49°09' W 004°37'917.9
2017-Oct-07 03:31N 49°04' W 004°49'917.8
2017-Oct-07 03:01N 49°00' W 005°02'917.4
2017-Oct-07 02:31N 48°56' W 005°13'816.7
2017-Oct-07 02:01N 48°52' W 005°24'816.5
2017-Oct-07 01:31N 48°48' W 005°35'815.7
2017-Oct-07 01:01N 48°42' W 005°43'  

Dump ship's entire track history